Portada
METAR-TAF:

METAR-TAF

Aeroports :

Semei, Kazakhstan

latitud: 50-21-05N, longitud: 080-14-04E, altitud: 232 m

Observació

L'informe es va fer fa 3 hores i 52 minuts, a les 14:30 UTC
Vent 8 kt del Nord
Temperatura 21°C
Humitat 49%
Pressió 1009 hPa
Visibilitat 10 km o més
sense núvols per sota de 1500 mi sense presència de cumulonimbus.

METAR: UASS 111430Z 36004MPS CAVOK 21/10 Q1009 R08/0///60 NOSIG RMK QFE737/0982

Hora: 00:22 (18:22 UTC)

Pronòstic

L'informe es va fer fa 4 hores i 4 minuts, a les 14:18 UTC
Pronòstic vàlid del 11 a les 15 UTC al 11 a les 24 UTC
Vent 14 kt del Nord/Nord-Oest amb ràfegues de 23 kt
Visibilitat 10 km o més
Cel ennuvolat a una alçada de 3000 ft, Cumulonimbus.
Cel ennuvolat a una alçada de 10000 ft
Temporalment
l' 11 a les 15 UTC al 11 a les 21 UTC
Vent 16 kt del Nord/Nord-Est amb ràfegues de 25 kt

TAF: UASS 111418Z 1115/1124 34007G12MPS 9999 BKN030CB BKN100 TEMPO 1115/1121 03008G13MPS

Observacions i pronòstics meteorològics de més de 4000 aeroports (METAR i TAF).

Les estacions disponibles són els punts grocs i vermells al mapa.

Posi el ratolí al punt desitjat per veure el nom de l'estació.

Feu clic per veure les observacions i els pronòstics meteorològics.

Per canviar el mapa: feu clic els botons verds amb una creu de color negre per apropar; al botó verd amb un guió per allunyar la imatge; o en les fletxes verdes per a mapes adjacents.


METAR-TAF: